sensor_id;sensor_type;location;lat;lon;timestamp;P1;durP1;ratioP1;P2;durP2;ratioP2
61356;SDS011;47227;46.752;23.576;2022-10-30T00:01:20;27.30;;;16.80;;
61356;SDS011;47227;46.752;23.576;2022-10-30T00:03:48;29.70;;;17.10;;
61356;SDS011;47227;46.752;23.576;2022-10-30T00:06:17;24.40;;;16.20;;
61356;SDS011;47227;46.752;23.576;2022-10-30T00:08:44;27.10;;;16.10;;
61356;SDS011;47227;46.752;23.576;2022-10-30T00:11:12;29.10;;;16.60;;
61356;SDS011;47227;46.752;23.576;2022-10-30T00:13:42;31.00;;;15.40;;
61356;SDS011;47227;46.752;23.576;2022-10-30T00:16:11;28.80;;;17.00;;
61356;SDS011;47227;46.752;23.576;2022-10-30T00:18:39;29.20;;;18.10;;
61356;SDS011;47227;46.752;23.576;2022-10-30T00:21:10;26.50;;;15.60;;
61356;SDS011;47227;46.752;23.576;2022-10-30T00:23:45;21.30;;;13.60;;
61356;SDS011;47227;46.752;23.576;2022-10-30T00:26:15;21.40;;;14.00;;
61356;SDS011;47227;46.752;23.576;2022-10-30T00:28:47;20.20;;;12.50;;
61356;SDS011;47227;46.752;23.576;2022-10-30T00:31:17;22.60;;;13.90;;
61356;SDS011;47227;46.752;23.576;2022-10-30T00:33:49;25.30;;;15.50;;
61356;SDS011;47227;46.752;23.576;2022-10-30T00:36:19;26.70;;;16.50;;
61356;SDS011;47227;46.752;23.576;2022-10-30T00:38:47;29.20;;;18.50;;
61356;SDS011;47227;46.752;23.576;2022-10-30T00:41:17;31.90;;;18.30;;
61356;SDS011;47227;46.752;23.576;2022-10-30T00:43:47;32.70;;;19.60;;
61356;SDS011;47227;46.752;23.576;2022-10-30T00:46:17;28.90;;;16.10;;
61356;SDS011;47227;46.752;23.576;2022-10-30T00:49:01;29.40;;;19.10;;
61356;SDS011;47227;46.752;23.576;2022-10-30T00:51:37;25.60;;;16.20;;
61356;SDS011;47227;46.752;23.576;2022-10-30T00:54:08;21.10;;;14.40;;
61356;SDS011;47227;46.752;23.576;2022-10-30T00:56:37;21.50;;;15.00;;
61356;SDS011;47227;46.752;23.576;2022-10-30T00:59:06;26.00;;;18.30;;
61356;SDS011;47227;46.752;23.576;2022-10-30T01:01:39;28.50;;;20.00;;
61356;SDS011;47227;46.752;23.576;2022-10-30T01:04:11;24.70;;;18.10;;
61356;SDS011;47227;46.752;23.576;2022-10-30T01:06:41;25.40;;;16.80;;
61356;SDS011;47227;46.752;23.576;2022-10-30T01:09:14;26.60;;;17.30;;
61356;SDS011;47227;46.752;23.576;2022-10-30T01:11:42;28.80;;;17.80;;
61356;SDS011;47227;46.752;23.576;2022-10-30T01:14:11;28.40;;;17.90;;
61356;SDS011;47227;46.752;23.576;2022-10-30T01:16:49;25.80;;;17.30;;
61356;SDS011;47227;46.752;23.576;2022-10-30T01:19:33;22.90;;;15.90;;
61356;SDS011;47227;46.752;23.576;2022-10-30T01:31:00;28.00;;;17.40;;
61356;SDS011;47227;46.752;23.576;2022-10-30T01:36:36;25.30;;;19.80;;
61356;SDS011;47227;46.752;23.576;2022-10-30T01:39:12;27.30;;;17.90;;
61356;SDS011;47227;46.752;23.576;2022-10-30T01:41:44;25.30;;;18.10;;
61356;SDS011;47227;46.752;23.576;2022-10-30T01:44:13;26.30;;;18.30;;
61356;SDS011;47227;46.752;23.576;2022-10-30T01:46:55;28.00;;;18.10;;
61356;SDS011;47227;46.752;23.576;2022-10-30T01:52:36;17.70;;;13.70;;
61356;SDS011;47227;46.752;23.576;2022-10-30T01:55:31;29.30;;;19.90;;
61356;SDS011;47227;46.752;23.576;2022-10-30T01:58:16;23.40;;;14.70;;
61356;SDS011;47227;46.752;23.576;2022-10-30T02:00:51;25.60;;;17.40;;
61356;SDS011;47227;46.752;23.576;2022-10-30T02:03:23;27.90;;;18.10;;
61356;SDS011;47227;46.752;23.576;2022-10-30T02:05:52;30.80;;;18.20;;
61356;SDS011;47227;46.752;23.576;2022-10-30T02:08:22;28.30;;;18.70;;
61356;SDS011;47227;46.752;23.576;2022-10-30T02:10:51;26.50;;;17.00;;
61356;SDS011;47227;46.752;23.576;2022-10-30T02:13:31;19.60;;;12.60;;
61356;SDS011;47227;46.752;23.576;2022-10-30T02:15:59;20.40;;;12.80;;
61356;SDS011;47227;46.752;23.576;2022-10-30T02:18:27;29.00;;;16.60;;
61356;SDS011;47227;46.752;23.576;2022-10-30T02:20:57;24.50;;;15.90;;
61356;SDS011;47227;46.752;23.576;2022-10-30T02:23:25;29.20;;;16.30;;
61356;SDS011;47227;46.752;23.576;2022-10-30T02:25:54;27.30;;;15.10;;
61356;SDS011;47227;46.752;23.576;2022-10-30T02:28:22;25.80;;;16.00;;
61356;SDS011;47227;46.752;23.576;2022-10-30T02:30:50;28.20;;;16.10;;
61356;SDS011;47227;46.752;23.576;2022-10-30T02:33:18;21.50;;;12.90;;
61356;SDS011;47227;46.752;23.576;2022-10-30T02:35:47;20.50;;;13.40;;
61356;SDS011;47227;46.752;23.576;2022-10-30T02:38:15;25.50;;;13.40;;
61356;SDS011;47227;46.752;23.576;2022-10-30T02:40:44;31.90;;;14.40;;
61356;SDS011;47227;46.752;23.576;2022-10-30T02:43:15;34.70;;;13.90;;
61356;SDS011;47227;46.752;23.576;2022-10-30T02:45:48;31.70;;;13.50;;
61356;SDS011;47227;46.752;23.576;2022-10-30T02:48:17;26.90;;;14.50;;
61356;SDS011;47227;46.752;23.576;2022-10-30T02:50:45;25.10;;;13.90;;
61356;SDS011;47227;46.752;23.576;2022-10-30T02:53:12;26.70;;;13.40;;
61356;SDS011;47227;46.752;23.576;2022-10-30T02:55:42;26.90;;;13.20;;
61356;SDS011;47227;46.752;23.576;2022-10-30T02:58:11;26.00;;;13.70;;
61356;SDS011;47227;46.752;23.576;2022-10-30T03:00:39;31.60;;;15.40;;
61356;SDS011;47227;46.752;23.576;2022-10-30T03:03:07;31.60;;;14.50;;
61356;SDS011;47227;46.752;23.576;2022-10-30T03:05:35;34.10;;;15.30;;
61356;SDS011;47227;46.752;23.576;2022-10-30T03:08:03;59.70;;;15.20;;
61356;SDS011;47227;46.752;23.576;2022-10-30T03:10:31;24.80;;;14.70;;
61356;SDS011;47227;46.752;23.576;2022-10-30T03:12:59;27.30;;;14.50;;
61356;SDS011;47227;46.752;23.576;2022-10-30T03:15:27;26.00;;;13.90;;
61356;SDS011;47227;46.752;23.576;2022-10-30T03:17:55;23.50;;;14.10;;
61356;SDS011;47227;46.752;23.576;2022-10-30T03:20:24;26.60;;;14.40;;
61356;SDS011;47227;46.752;23.576;2022-10-30T03:22:52;45.10;;;15.70;;
61356;SDS011;47227;46.752;23.576;2022-10-30T03:25:20;27.40;;;15.50;;
61356;SDS011;47227;46.752;23.576;2022-10-30T03:27:53;45.00;;;15.40;;
61356;SDS011;47227;46.752;23.576;2022-10-30T03:30:23;42.30;;;16.80;;
61356;SDS011;47227;46.752;23.576;2022-10-30T03:32:51;37.40;;;14.80;;
61356;SDS011;47227;46.752;23.576;2022-10-30T03:35:20;37.20;;;15.90;;
61356;SDS011;47227;46.752;23.576;2022-10-30T03:37:48;31.20;;;14.10;;
61356;SDS011;47227;46.752;23.576;2022-10-30T03:40:18;23.00;;;13.50;;
61356;SDS011;47227;46.752;23.576;2022-10-30T03:42:46;36.70;;;14.80;;
61356;SDS011;47227;46.752;23.576;2022-10-30T03:45:14;29.90;;;14.30;;
61356;SDS011;47227;46.752;23.576;2022-10-30T03:47:42;46.80;;;14.20;;
61356;SDS011;47227;46.752;23.576;2022-10-30T03:50:10;28.50;;;14.20;;
61356;SDS011;47227;46.752;23.576;2022-10-30T03:52:38;22.00;;;13.70;;
61356;SDS011;47227;46.752;23.576;2022-10-30T03:55:06;50.00;;;14.80;;
61356;SDS011;47227;46.752;23.576;2022-10-30T03:57:36;24.00;;;12.40;;
61356;SDS011;47227;46.752;23.576;2022-10-30T04:00:09;19.30;;;13.10;;
61356;SDS011;47227;46.752;23.576;2022-10-30T04:02:44;20.30;;;13.50;;
61356;SDS011;47227;46.752;23.576;2022-10-30T04:05:17;18.90;;;12.50;;
61356;SDS011;47227;46.752;23.576;2022-10-30T04:07:48;24.10;;;12.70;;
61356;SDS011;47227;46.752;23.576;2022-10-30T04:10:23;24.20;;;13.40;;
61356;SDS011;47227;46.752;23.576;2022-10-30T04:12:54;25.70;;;13.20;;
61356;SDS011;47227;46.752;23.576;2022-10-30T04:15:27;31.20;;;13.80;;
61356;SDS011;47227;46.752;23.576;2022-10-30T04:17:55;25.40;;;14.30;;
61356;SDS011;47227;46.752;23.576;2022-10-30T04:20:25;27.30;;;14.60;;
61356;SDS011;47227;46.752;23.576;2022-10-30T04:22:55;28.70;;;13.80;;
61356;SDS011;47227;46.752;23.576;2022-10-30T04:25:25;31.00;;;13.90;;
61356;SDS011;47227;46.752;23.576;2022-10-30T04:27:55;33.10;;;14.60;;
61356;SDS011;47227;46.752;23.576;2022-10-30T04:30:24;26.60;;;14.60;;
61356;SDS011;47227;46.752;23.576;2022-10-30T04:32:54;33.20;;;16.70;;
61356;SDS011;47227;46.752;23.576;2022-10-30T04:35:24;29.80;;;15.20;;
61356;SDS011;47227;46.752;23.576;2022-10-30T04:37:56;27.40;;;14.50;;
61356;SDS011;47227;46.752;23.576;2022-10-30T04:40:27;23.30;;;14.40;;
61356;SDS011;47227;46.752;23.576;2022-10-30T04:43:00;18.60;;;12.10;;
61356;SDS011;47227;46.752;23.576;2022-10-30T04:45:30;16.90;;;10.70;;
61356;SDS011;47227;46.752;23.576;2022-10-30T04:47:59;46.20;;;15.10;;
61356;SDS011;47227;46.752;23.576;2022-10-30T04:50:30;32.00;;;15.10;;
61356;SDS011;47227;46.752;23.576;2022-10-30T04:53:01;28.30;;;14.20;;
61356;SDS011;47227;46.752;23.576;2022-10-30T04:55:31;25.80;;;13.20;;
61356;SDS011;47227;46.752;23.576;2022-10-30T04:58:00;42.60;;;13.90;;
61356;SDS011;47227;46.752;23.576;2022-10-30T05:00:32;34.50;;;12.70;;
61356;SDS011;47227;46.752;23.576;2022-10-30T05:03:10;26.20;;;13.60;;
61356;SDS011;47227;46.752;23.576;2022-10-30T05:05:45;20.80;;;12.00;;
61356;SDS011;47227;46.752;23.576;2022-10-30T05:08:15;26.50;;;13.50;;
61356;SDS011;47227;46.752;23.576;2022-10-30T05:10:43;41.00;;;14.10;;
61356;SDS011;47227;46.752;23.576;2022-10-30T05:13:12;33.00;;;13.70;;
61356;SDS011;47227;46.752;23.576;2022-10-30T05:15:41;40.70;;;15.20;;
61356;SDS011;47227;46.752;23.576;2022-10-30T05:18:09;25.70;;;13.40;;
61356;SDS011;47227;46.752;23.576;2022-10-30T05:20:37;31.00;;;15.50;;
61356;SDS011;47227;46.752;23.576;2022-10-30T05:23:08;37.80;;;15.10;;
61356;SDS011;47227;46.752;23.576;2022-10-30T05:25:36;26.50;;;14.80;;
61356;SDS011;47227;46.752;23.576;2022-10-30T05:28:05;52.80;;;15.00;;
61356;SDS011;47227;46.752;23.576;2022-10-30T05:30:38;21.60;;;13.60;;
61356;SDS011;47227;46.752;23.576;2022-10-30T05:33:11;40.90;;;15.10;;
61356;SDS011;47227;46.752;23.576;2022-10-30T05:35:42;35.10;;;14.50;;
61356;SDS011;47227;46.752;23.576;2022-10-30T05:38:11;31.30;;;14.60;;
61356;SDS011;47227;46.752;23.576;2022-10-30T05:40:39;23.90;;;13.00;;
61356;SDS011;47227;46.752;23.576;2022-10-30T05:43:08;20.90;;;12.30;;
61356;SDS011;47227;46.752;23.576;2022-10-30T05:45:36;23.10;;;12.60;;
61356;SDS011;47227;46.752;23.576;2022-10-30T05:48:04;22.60;;;12.40;;
61356;SDS011;47227;46.752;23.576;2022-10-30T05:50:42;18.70;;;12.10;;
61356;SDS011;47227;46.752;23.576;2022-10-30T05:53:17;21.70;;;12.80;;
61356;SDS011;47227;46.752;23.576;2022-10-30T05:55:45;19.10;;;11.80;;
61356;SDS011;47227;46.752;23.576;2022-10-30T05:58:18;19.70;;;12.20;;
61356;SDS011;47227;46.752;23.576;2022-10-30T06:00:47;20.80;;;11.80;;
61356;SDS011;47227;46.752;23.576;2022-10-30T06:03:18;17.10;;;11.50;;
61356;SDS011;47227;46.752;23.576;2022-10-30T06:05:46;18.70;;;11.10;;
61356;SDS011;47227;46.752;23.576;2022-10-30T06:08:15;17.30;;;11.10;;
61356;SDS011;47227;46.752;23.576;2022-10-30T06:10:45;18.20;;;12.00;;
61356;SDS011;47227;46.752;23.576;2022-10-30T06:13:16;21.00;;;12.30;;
61356;SDS011;47227;46.752;23.576;2022-10-30T06:16:00;19.70;;;12.70;;
61356;SDS011;47227;46.752;23.576;2022-10-30T06:18:48;26.30;;;13.20;;
61356;SDS011;47227;46.752;23.576;2022-10-30T06:21:16;27.10;;;14.60;;
61356;SDS011;47227;46.752;23.576;2022-10-30T06:24:01;33.30;;;14.60;;
61356;SDS011;47227;46.752;23.576;2022-10-30T06:26:36;36.90;;;17.00;;
61356;SDS011;47227;46.752;23.576;2022-10-30T06:29:09;52.30;;;16.90;;
61356;SDS011;47227;46.752;23.576;2022-10-30T06:31:37;26.70;;;14.00;;
61356;SDS011;47227;46.752;23.576;2022-10-30T06:34:05;29.30;;;14.90;;
61356;SDS011;47227;46.752;23.576;2022-10-30T06:36:35;27.90;;;15.10;;
61356;SDS011;47227;46.752;23.576;2022-10-30T06:39:04;31.40;;;14.00;;
61356;SDS011;47227;46.752;23.576;2022-10-30T06:44:22;25.00;;;12.80;;
61356;SDS011;47227;46.752;23.576;2022-10-30T06:46:52;24.30;;;12.90;;
61356;SDS011;47227;46.752;23.576;2022-10-30T06:49:21;23.30;;;12.20;;
61356;SDS011;47227;46.752;23.576;2022-10-30T06:51:50;21.60;;;12.80;;
61356;SDS011;47227;46.752;23.576;2022-10-30T06:54:19;29.60;;;12.90;;
61356;SDS011;47227;46.752;23.576;2022-10-30T06:57:07;19.50;;;12.20;;
61356;SDS011;47227;46.752;23.576;2022-10-30T06:59:55;19.00;;;12.20;;
61356;SDS011;47227;46.752;23.576;2022-10-30T07:02:34;20.10;;;12.20;;
61356;SDS011;47227;46.752;23.576;2022-10-30T07:05:06;22.80;;;12.70;;
61356;SDS011;47227;46.752;23.576;2022-10-30T07:07:34;23.60;;;12.10;;
61356;SDS011;47227;46.752;23.576;2022-10-30T07:10:02;22.50;;;12.00;;
61356;SDS011;47227;46.752;23.576;2022-10-30T07:12:51;20.40;;;12.80;;
61356;SDS011;47227;46.752;23.576;2022-10-30T07:15:38;22.60;;;13.60;;
61356;SDS011;47227;46.752;23.576;2022-10-30T07:18:18;19.80;;;13.00;;
61356;SDS011;47227;46.752;23.576;2022-10-30T07:20:47;22.40;;;12.80;;
61356;SDS011;47227;46.752;23.576;2022-10-30T07:23:22;20.80;;;12.90;;
61356;SDS011;47227;46.752;23.576;2022-10-30T07:25:53;21.00;;;12.90;;
61356;SDS011;47227;46.752;23.576;2022-10-30T07:28:38;21.50;;;13.30;;
61356;SDS011;47227;46.752;23.576;2022-10-30T07:31:24;21.30;;;13.40;;
61356;SDS011;47227;46.752;23.576;2022-10-30T07:34:32;20.90;;;13.40;;
61356;SDS011;47227;46.752;23.576;2022-10-30T07:37:15;22.00;;;14.30;;
61356;SDS011;47227;46.752;23.576;2022-10-30T07:39:49;21.10;;;12.90;;
61356;SDS011;47227;46.752;23.576;2022-10-30T07:42:21;19.70;;;12.60;;
61356;SDS011;47227;46.752;23.576;2022-10-30T07:45:06;19.00;;;11.80;;
61356;SDS011;47227;46.752;23.576;2022-10-30T07:47:55;19.40;;;12.20;;
61356;SDS011;47227;46.752;23.576;2022-10-30T07:50:35;19.50;;;12.40;;
61356;SDS011;47227;46.752;23.576;2022-10-30T07:53:03;21.20;;;12.00;;
61356;SDS011;47227;46.752;23.576;2022-10-30T07:55:33;19.50;;;12.10;;
61356;SDS011;47227;46.752;23.576;2022-10-30T07:58:20;18.90;;;11.80;;
61356;SDS011;47227;46.752;23.576;2022-10-30T08:01:06;20.20;;;12.50;;
61356;SDS011;47227;46.752;23.576;2022-10-30T08:03:35;23.50;;;12.90;;
61356;SDS011;47227;46.752;23.576;2022-10-30T08:06:14;24.00;;;13.90;;
61356;SDS011;47227;46.752;23.576;2022-10-30T08:08:43;23.70;;;14.00;;
61356;SDS011;47227;46.752;23.576;2022-10-30T08:11:19;22.40;;;13.50;;
61356;SDS011;47227;46.752;23.576;2022-10-30T08:13:47;22.30;;;13.40;;
61356;SDS011;47227;46.752;23.576;2022-10-30T08:16:17;21.20;;;13.00;;
61356;SDS011;47227;46.752;23.576;2022-10-30T08:18:45;21.30;;;13.60;;
61356;SDS011;47227;46.752;23.576;2022-10-30T08:21:13;18.70;;;13.50;;
61356;SDS011;47227;46.752;23.576;2022-10-30T08:23:52;22.60;;;13.40;;
61356;SDS011;47227;46.752;23.576;2022-10-30T08:26:20;19.60;;;12.70;;
61356;SDS011;47227;46.752;23.576;2022-10-30T08:28:48;19.70;;;13.90;;
61356;SDS011;47227;46.752;23.576;2022-10-30T08:31:16;20.60;;;13.60;;
61356;SDS011;47227;46.752;23.576;2022-10-30T08:33:58;25.60;;;15.80;;
61356;SDS011;47227;46.752;23.576;2022-10-30T08:36:30;20.20;;;13.20;;
61356;SDS011;47227;46.752;23.576;2022-10-30T08:38:59;19.10;;;12.40;;
61356;SDS011;47227;46.752;23.576;2022-10-30T08:41:40;20.10;;;12.60;;
61356;SDS011;47227;46.752;23.576;2022-10-30T08:44:09;20.40;;;12.40;;
61356;SDS011;47227;46.752;23.576;2022-10-30T08:46:49;18.10;;;11.10;;
61356;SDS011;47227;46.752;23.576;2022-10-30T08:49:18;19.00;;;12.20;;
61356;SDS011;47227;46.752;23.576;2022-10-30T08:51:51;22.90;;;11.80;;
61356;SDS011;47227;46.752;23.576;2022-10-30T08:54:19;21.40;;;11.60;;
61356;SDS011;47227;46.752;23.576;2022-10-30T08:56:47;20.50;;;12.20;;
61356;SDS011;47227;46.752;23.576;2022-10-30T08:59:15;22.30;;;12.60;;
61356;SDS011;47227;46.752;23.576;2022-10-30T09:01:48;21.20;;;13.20;;
61356;SDS011;47227;46.752;23.576;2022-10-30T09:04:38;21.70;;;13.90;;
61356;SDS011;47227;46.752;23.576;2022-10-30T09:07:26;19.80;;;13.20;;
61356;SDS011;47227;46.752;23.576;2022-10-30T09:10:14;23.70;;;14.50;;
61356;SDS011;47227;46.752;23.576;2022-10-30T09:12:42;24.40;;;14.30;;
61356;SDS011;47227;46.752;23.576;2022-10-30T09:15:11;25.40;;;15.30;;
61356;SDS011;47227;46.752;23.576;2022-10-30T09:17:54;24.70;;;15.00;;
61356;SDS011;47227;46.752;23.576;2022-10-30T09:20:25;23.50;;;14.10;;
61356;SDS011;47227;46.752;23.576;2022-10-30T09:22:53;24.80;;;14.20;;
61356;SDS011;47227;46.752;23.576;2022-10-30T09:25:24;24.10;;;15.10;;
61356;SDS011;47227;46.752;23.576;2022-10-30T09:28:05;24.40;;;15.70;;
61356;SDS011;47227;46.752;23.576;2022-10-30T09:30:46;24.40;;;15.70;;
61356;SDS011;47227;46.752;23.576;2022-10-30T09:33:19;24.80;;;16.20;;
61356;SDS011;47227;46.752;23.576;2022-10-30T09:36:09;21.50;;;13.90;;
61356;SDS011;47227;46.752;23.576;2022-10-30T09:38:36;21.80;;;14.30;;
61356;SDS011;47227;46.752;23.576;2022-10-30T09:41:12;23.40;;;16.10;;
61356;SDS011;47227;46.752;23.576;2022-10-30T09:43:55;23.10;;;14.10;;
61356;SDS011;47227;46.752;23.576;2022-10-30T09:46:55;23.30;;;14.30;;
61356;SDS011;47227;46.752;23.576;2022-10-30T09:58:28;21.40;;;14.40;;
61356;SDS011;47227;46.752;23.576;2022-10-30T10:01:08;23.50;;;14.80;;
61356;SDS011;47227;46.752;23.576;2022-10-30T10:03:57;19.40;;;13.70;;
61356;SDS011;47227;46.752;23.576;2022-10-30T10:06:45;23.50;;;13.80;;
61356;SDS011;47227;46.752;23.576;2022-10-30T10:09:37;22.90;;;14.60;;
61356;SDS011;47227;46.752;23.576;2022-10-30T10:12:22;17.80;;;12.70;;
61356;SDS011;47227;46.752;23.576;2022-10-30T10:14:57;17.60;;;13.30;;
61356;SDS011;47227;46.752;23.576;2022-10-30T10:17:34;22.30;;;13.20;;
61356;SDS011;47227;46.752;23.576;2022-10-30T10:20:12;18.00;;;12.50;;
61356;SDS011;47227;46.752;23.576;2022-10-30T10:25:18;21.10;;;13.40;;
61356;SDS011;47227;46.752;23.576;2022-10-30T10:33:41;20.00;;;13.10;;
61356;SDS011;47227;46.752;23.576;2022-10-30T10:36:32;18.60;;;13.80;;
61356;SDS011;47227;46.752;23.576;2022-10-30T10:42:12;18.50;;;13.40;;
61356;SDS011;47227;46.752;23.576;2022-10-30T10:44:58;19.60;;;12.80;;
61356;SDS011;47227;46.752;23.576;2022-10-30T10:47:49;21.60;;;13.40;;
61356;SDS011;47227;46.752;23.576;2022-10-30T10:50:31;20.90;;;13.80;;
61356;SDS011;47227;46.752;23.576;2022-10-30T10:53:06;21.40;;;14.40;;
61356;SDS011;47227;46.752;23.576;2022-10-30T10:55:41;18.20;;;12.90;;
61356;SDS011;47227;46.752;23.576;2022-10-30T10:58:21;19.50;;;13.10;;
61356;SDS011;47227;46.752;23.576;2022-10-30T11:00:56;21.10;;;13.10;;
61356;SDS011;47227;46.752;23.576;2022-10-30T11:03:30;18.90;;;13.20;;
61356;SDS011;47227;46.752;23.576;2022-10-30T11:06:21;19.60;;;12.50;;
61356;SDS011;47227;46.752;23.576;2022-10-30T11:08:57;17.30;;;12.20;;
61356;SDS011;47227;46.752;23.576;2022-10-30T11:11:39;16.00;;;12.20;;
61356;SDS011;47227;46.752;23.576;2022-10-30T11:14:11;16.30;;;12.10;;
61356;SDS011;47227;46.752;23.576;2022-10-30T11:16:49;15.50;;;11.90;;
61356;SDS011;47227;46.752;23.576;2022-10-30T11:19:25;16.20;;;13.10;;
61356;SDS011;47227;46.752;23.576;2022-10-30T11:21:59;17.90;;;12.80;;
61356;SDS011;47227;46.752;23.576;2022-10-30T11:24:32;18.70;;;13.40;;
61356;SDS011;47227;46.752;23.576;2022-10-30T11:29:53;20.30;;;12.60;;
61356;SDS011;47227;46.752;23.576;2022-10-30T11:35:14;15.40;;;11.70;;
61356;SDS011;47227;46.752;23.576;2022-10-30T11:37:45;16.60;;;12.20;;
61356;SDS011;47227;46.752;23.576;2022-10-30T11:40:16;17.80;;;12.60;;
61356;SDS011;47227;46.752;23.576;2022-10-30T11:42:56;18.30;;;13.00;;
61356;SDS011;47227;46.752;23.576;2022-10-30T11:45:31;16.80;;;12.50;;
61356;SDS011;47227;46.752;23.576;2022-10-30T11:48:08;22.20;;;13.20;;
61356;SDS011;47227;46.752;23.576;2022-10-30T11:50:57;17.50;;;12.70;;
61356;SDS011;47227;46.752;23.576;2022-10-30T11:53:29;14.30;;;11.90;;
61356;SDS011;47227;46.752;23.576;2022-10-30T11:56:13;14.10;;;11.10;;
61356;SDS011;47227;46.752;23.576;2022-10-30T11:58:44;15.30;;;11.70;;
61356;SDS011;47227;46.752;23.576;2022-10-30T12:01:21;16.20;;;12.30;;
61356;SDS011;47227;46.752;23.576;2022-10-30T12:03:54;17.80;;;11.70;;
61356;SDS011;47227;46.752;23.576;2022-10-30T12:06:26;17.10;;;12.60;;
61356;SDS011;47227;46.752;23.576;2022-10-30T12:11:47;18.50;;;11.80;;
61356;SDS011;47227;46.752;23.576;2022-10-30T12:14:18;17.40;;;12.10;;
61356;SDS011;47227;46.752;23.576;2022-10-30T12:16:49;15.90;;;12.30;;
61356;SDS011;47227;46.752;23.576;2022-10-30T12:19:19;14.20;;;11.70;;
61356;SDS011;47227;46.752;23.576;2022-10-30T12:21:50;17.50;;;11.70;;
61356;SDS011;47227;46.752;23.576;2022-10-30T12:24:24;16.40;;;11.90;;
61356;SDS011;47227;46.752;23.576;2022-10-30T12:27:00;14.00;;;11.30;;
61356;SDS011;47227;46.752;23.576;2022-10-30T12:29:36;18.50;;;11.10;;
61356;SDS011;47227;46.752;23.576;2022-10-30T12:38:05;15.30;;;10.90;;
61356;SDS011;47227;46.752;23.576;2022-10-30T12:40:40;13.40;;;11.10;;
61356;SDS011;47227;46.752;23.576;2022-10-30T12:43:18;14.90;;;10.90;;
61356;SDS011;47227;46.752;23.576;2022-10-30T12:45:55;16.50;;;10.90;;
61356;SDS011;47227;46.752;23.576;2022-10-30T12:48:36;13.40;;;10.80;;
61356;SDS011;47227;46.752;23.576;2022-10-30T12:51:16;14.10;;;10.20;;
61356;SDS011;47227;46.752;23.576;2022-10-30T12:57:02;13.20;;;10.40;;
61356;SDS011;47227;46.752;23.576;2022-10-30T12:59:39;16.30;;;10.60;;
61356;SDS011;47227;46.752;23.576;2022-10-30T13:02:25;13.80;;;10.40;;
61356;SDS011;47227;46.752;23.576;2022-10-30T13:05:01;10.60;;;9.20;;
61356;SDS011;47227;46.752;23.576;2022-10-30T13:07:37;11.30;;;9.30;;
61356;SDS011;47227;46.752;23.576;2022-10-30T13:10:27;11.30;;;9.40;;
61356;SDS011;47227;46.752;23.576;2022-10-30T13:13:02;12.00;;;9.70;;
61356;SDS011;47227;46.752;23.576;2022-10-30T13:15:39;15.70;;;9.80;;
61356;SDS011;47227;46.752;23.576;2022-10-30T13:18:19;12.40;;;9.50;;
61356;SDS011;47227;46.752;23.576;2022-10-30T13:20:56;10.90;;;8.70;;
61356;SDS011;47227;46.752;23.576;2022-10-30T13:23:36;10.40;;;8.40;;
61356;SDS011;47227;46.752;23.576;2022-10-30T13:26:29;10.20;;;8.90;;
61356;SDS011;47227;46.752;23.576;2022-10-30T13:29:06;10.70;;;8.90;;
61356;SDS011;47227;46.752;23.576;2022-10-30T13:31:46;13.20;;;9.20;;
61356;SDS011;47227;46.752;23.576;2022-10-30T13:34:28;11.60;;;8.50;;
61356;SDS011;47227;46.752;23.576;2022-10-30T13:40:03;10.40;;;8.30;;
61356;SDS011;47227;46.752;23.576;2022-10-30T13:42:47;11.10;;;8.40;;
61356;SDS011;47227;46.752;23.576;2022-10-30T13:48:33;13.10;;;8.40;;
61356;SDS011;47227;46.752;23.576;2022-10-30T13:51:24;13.00;;;8.90;;
61356;SDS011;47227;46.752;23.576;2022-10-30T13:54:14;11.50;;;8.80;;
61356;SDS011;47227;46.752;23.576;2022-10-30T13:57:02;12.50;;;9.00;;
61356;SDS011;47227;46.752;23.576;2022-10-30T13:59:46;14.00;;;10.00;;
61356;SDS011;47227;46.752;23.576;2022-10-30T14:02:43;12.00;;;8.40;;
61356;SDS011;47227;46.752;23.576;2022-10-30T14:05:37;13.80;;;9.00;;
61356;SDS011;47227;46.752;23.576;2022-10-30T14:08:31;9.80;;;8.60;;
61356;SDS011;47227;46.752;23.576;2022-10-30T14:11:05;14.10;;;9.40;;
61356;SDS011;47227;46.752;23.576;2022-10-30T14:16:32;10.20;;;8.70;;
61356;SDS011;47227;46.752;23.576;2022-10-30T14:19:08;11.00;;;9.10;;
61356;SDS011;47227;46.752;23.576;2022-10-30T14:21:39;10.90;;;9.00;;
61356;SDS011;47227;46.752;23.576;2022-10-30T14:24:13;11.10;;;8.50;;
61356;SDS011;47227;46.752;23.576;2022-10-30T14:26:45;9.10;;;8.20;;
61356;SDS011;47227;46.752;23.576;2022-10-30T14:35:01;13.30;;;9.00;;
61356;SDS011;47227;46.752;23.576;2022-10-30T14:40:29;10.30;;;8.80;;
61356;SDS011;47227;46.752;23.576;2022-10-30T14:43:17;12.30;;;9.00;;
61356;SDS011;47227;46.752;23.576;2022-10-30T14:46:00;14.50;;;9.00;;
61356;SDS011;47227;46.752;23.576;2022-10-30T14:48:41;12.30;;;9.40;;
61356;SDS011;47227;46.752;23.576;2022-10-30T14:51:29;13.10;;;8.50;;
61356;SDS011;47227;46.752;23.576;2022-10-30T14:54:11;15.10;;;9.80;;
61356;SDS011;47227;46.752;23.576;2022-10-30T14:56:51;13.60;;;8.90;;
61356;SDS011;47227;46.752;23.576;2022-10-30T14:59:22;14.30;;;9.00;;
61356;SDS011;47227;46.752;23.576;2022-10-30T15:02:03;11.60;;;8.80;;
61356;SDS011;47227;46.752;23.576;2022-10-30T15:07:47;9.50;;;8.30;;
61356;SDS011;47227;46.752;23.576;2022-10-30T15:10:24;12.20;;;9.80;;
61356;SDS011;47227;46.752;23.576;2022-10-30T15:18:25;11.90;;;9.20;;
61356;SDS011;47227;46.752;23.576;2022-10-30T15:21:00;12.60;;;9.30;;
61356;SDS011;47227;46.752;23.576;2022-10-30T15:23:32;12.30;;;9.80;;
61356;SDS011;47227;46.752;23.576;2022-10-30T15:26:04;17.20;;;10.30;;
61356;SDS011;47227;46.752;23.576;2022-10-30T15:28:36;14.40;;;9.70;;
61356;SDS011;47227;46.752;23.576;2022-10-30T15:31:06;14.10;;;9.90;;
61356;SDS011;47227;46.752;23.576;2022-10-30T15:33:45;17.60;;;10.50;;
61356;SDS011;47227;46.752;23.576;2022-10-30T15:36:15;20.10;;;12.10;;
61356;SDS011;47227;46.752;23.576;2022-10-30T15:41:30;23.00;;;12.70;;
61356;SDS011;47227;46.752;23.576;2022-10-30T15:43:59;20.20;;;12.70;;
61356;SDS011;47227;46.752;23.576;2022-10-30T15:46:27;20.90;;;13.00;;
61356;SDS011;47227;46.752;23.576;2022-10-30T15:48:56;24.00;;;13.50;;
61356;SDS011;47227;46.752;23.576;2022-10-30T15:51:24;19.20;;;12.90;;
61356;SDS011;47227;46.752;23.576;2022-10-30T15:53:55;28.00;;;13.60;;
61356;SDS011;47227;46.752;23.576;2022-10-30T15:59:30;23.60;;;13.70;;
61356;SDS011;47227;46.752;23.576;2022-10-30T16:02:01;24.70;;;14.10;;
61356;SDS011;47227;46.752;23.576;2022-10-30T16:04:30;21.40;;;13.80;;
61356;SDS011;47227;46.752;23.576;2022-10-30T16:07:00;20.10;;;13.70;;
61356;SDS011;47227;46.752;23.576;2022-10-30T16:09:50;21.50;;;13.10;;
61356;SDS011;47227;46.752;23.576;2022-10-30T16:12:24;21.70;;;11.50;;
61356;SDS011;47227;46.752;23.576;2022-10-30T16:14:55;21.80;;;12.70;;
61356;SDS011;47227;46.752;23.576;2022-10-30T16:17:24;22.60;;;11.80;;
61356;SDS011;47227;46.752;23.576;2022-10-30T16:19:54;19.20;;;12.60;;